sensor_id;sensor_type;location;lat;lon;timestamp;temperature;humidity
63802;DHT22;49949;43.060;25.624;2023-08-24T00:02:12;23.30;99.90
63802;DHT22;49949;43.060;25.624;2023-08-24T00:04:38;23.20;99.90
63802;DHT22;49949;43.060;25.624;2023-08-24T00:07:04;23.20;99.90
63802;DHT22;49949;43.060;25.624;2023-08-24T00:09:29;23.10;99.90
63802;DHT22;49949;43.060;25.624;2023-08-24T00:11:55;23.10;99.90
63802;DHT22;49949;43.060;25.624;2023-08-24T00:14:21;23.10;99.90
63802;DHT22;49949;43.060;25.624;2023-08-24T00:16:47;23.20;99.90
63802;DHT22;49949;43.060;25.624;2023-08-24T00:19:12;23.20;99.90
63802;DHT22;49949;43.060;25.624;2023-08-24T00:21:38;23.30;99.90
63802;DHT22;49949;43.060;25.624;2023-08-24T00:24:04;23.20;99.90
63802;DHT22;49949;43.060;25.624;2023-08-24T00:26:30;23.20;99.90
63802;DHT22;49949;43.060;25.624;2023-08-24T00:28:55;23.20;99.90
63802;DHT22;49949;43.060;25.624;2023-08-24T00:31:21;23.20;99.90
63802;DHT22;49949;43.060;25.624;2023-08-24T00:33:47;23.20;99.90
63802;DHT22;49949;43.060;25.624;2023-08-24T00:36:12;23.10;99.90
63802;DHT22;49949;43.060;25.624;2023-08-24T00:38:38;23.20;99.90
63802;DHT22;49949;43.060;25.624;2023-08-24T00:41:04;23.10;99.90
63802;DHT22;49949;43.060;25.624;2023-08-24T00:43:30;23.10;99.90
63802;DHT22;49949;43.060;25.624;2023-08-24T00:45:59;23.10;99.90
63802;DHT22;49949;43.060;25.624;2023-08-24T00:48:25;23.10;99.90
63802;DHT22;49949;43.060;25.624;2023-08-24T00:51:01;23.10;99.90
63802;DHT22;49949;43.060;25.624;2023-08-24T00:53:28;23.10;99.90
63802;DHT22;49949;43.060;25.624;2023-08-24T00:55:54;23.20;99.90
63802;DHT22;49949;43.060;25.624;2023-08-24T00:58:21;23.30;99.90
63802;DHT22;49949;43.060;25.624;2023-08-24T01:00:48;23.30;99.90
63802;DHT22;49949;43.060;25.624;2023-08-24T01:03:14;23.20;99.90
63802;DHT22;49949;43.060;25.624;2023-08-24T01:05:40;23.30;99.90
63802;DHT22;49949;43.060;25.624;2023-08-24T01:08:06;23.40;99.90
63802;DHT22;49949;43.060;25.624;2023-08-24T01:10:44;23.40;99.90
63802;DHT22;49949;43.060;25.624;2023-08-24T01:13:18;23.50;99.90
63802;DHT22;49949;43.060;25.624;2023-08-24T01:15:58;23.50;99.90
63802;DHT22;49949;43.060;25.624;2023-08-24T01:18:25;23.50;99.90
63802;DHT22;49949;43.060;25.624;2023-08-24T01:20:55;23.40;99.90
63802;DHT22;49949;43.060;25.624;2023-08-24T01:26:17;23.00;99.90
63802;DHT22;49949;43.060;25.624;2023-08-24T01:28:47;22.90;99.90
63802;DHT22;49949;43.060;25.624;2023-08-24T01:31:16;22.90;99.90
63802;DHT22;49949;43.060;25.624;2023-08-24T01:33:43;22.90;99.90
63802;DHT22;49949;43.060;25.624;2023-08-24T01:36:11;22.70;99.90
63802;DHT22;49949;43.060;25.624;2023-08-24T01:38:37;22.60;99.90
63802;DHT22;49949;43.060;25.624;2023-08-24T01:41:20;22.50;99.90
63802;DHT22;49949;43.060;25.624;2023-08-24T01:43:52;22.50;99.90
63802;DHT22;49949;43.060;25.624;2023-08-24T01:46:20;22.40;99.90
63802;DHT22;49949;43.060;25.624;2023-08-24T01:48:47;22.40;99.90
63802;DHT22;49949;43.060;25.624;2023-08-24T01:51:14;22.40;99.90
63802;DHT22;49949;43.060;25.624;2023-08-24T01:53:40;22.40;99.90
63802;DHT22;49949;43.060;25.624;2023-08-24T01:56:14;22.40;99.90
63802;DHT22;49949;43.060;25.624;2023-08-24T01:58:40;22.40;99.90
63802;DHT22;49949;43.060;25.624;2023-08-24T02:01:10;22.40;99.90
63802;DHT22;49949;43.060;25.624;2023-08-24T02:03:36;22.40;99.90
63802;DHT22;49949;43.060;25.624;2023-08-24T02:06:04;22.30;99.90
63802;DHT22;49949;43.060;25.624;2023-08-24T02:08:32;22.20;99.90
63802;DHT22;49949;43.060;25.624;2023-08-24T02:10:58;22.20;99.90
63802;DHT22;49949;43.060;25.624;2023-08-24T02:13:24;22.20;99.90
63802;DHT22;49949;43.060;25.624;2023-08-24T02:15:49;22.20;99.90
63802;DHT22;49949;43.060;25.624;2023-08-24T02:18:15;22.30;99.90
63802;DHT22;49949;43.060;25.624;2023-08-24T02:20:41;22.30;99.90
63802;DHT22;49949;43.060;25.624;2023-08-24T02:23:07;22.30;99.90
63802;DHT22;49949;43.060;25.624;2023-08-24T02:25:32;22.30;99.90
63802;DHT22;49949;43.060;25.624;2023-08-24T02:28:01;22.30;99.90
63802;DHT22;49949;43.060;25.624;2023-08-24T02:30:27;22.30;99.90
63802;DHT22;49949;43.060;25.624;2023-08-24T02:32:52;22.20;99.90
63802;DHT22;49949;43.060;25.624;2023-08-24T02:35:18;22.20;99.90
63802;DHT22;49949;43.060;25.624;2023-08-24T02:37:44;22.30;99.90
63802;DHT22;49949;43.060;25.624;2023-08-24T02:40:10;22.30;99.90
63802;DHT22;49949;43.060;25.624;2023-08-24T02:42:36;22.30;99.90
63802;DHT22;49949;43.060;25.624;2023-08-24T02:45:03;22.30;99.90
63802;DHT22;49949;43.060;25.624;2023-08-24T02:47:29;22.30;99.90
63802;DHT22;49949;43.060;25.624;2023-08-24T02:49:55;22.30;99.90
63802;DHT22;49949;43.060;25.624;2023-08-24T02:52:20;22.30;99.90
63802;DHT22;49949;43.060;25.624;2023-08-24T02:54:46;22.20;99.90
63802;DHT22;49949;43.060;25.624;2023-08-24T02:57:12;22.20;99.90
63802;DHT22;49949;43.060;25.624;2023-08-24T02:59:37;22.10;99.90
63802;DHT22;49949;43.060;25.624;2023-08-24T03:02:04;22.10;99.90
63802;DHT22;49949;43.060;25.624;2023-08-24T03:04:30;22.20;99.90
63802;DHT22;49949;43.060;25.624;2023-08-24T03:06:56;22.20;99.90
63802;DHT22;49949;43.060;25.624;2023-08-24T03:09:22;22.10;99.90
63802;DHT22;49949;43.060;25.624;2023-08-24T03:11:48;22.10;99.90
63802;DHT22;49949;43.060;25.624;2023-08-24T03:14:13;22.10;99.90
63802;DHT22;49949;43.060;25.624;2023-08-24T03:16:39;22.10;99.90
63802;DHT22;49949;43.060;25.624;2023-08-24T03:19:05;22.10;99.90
63802;DHT22;49949;43.060;25.624;2023-08-24T03:21:30;22.10;99.90
63802;DHT22;49949;43.060;25.624;2023-08-24T03:23:56;22.20;99.90
63802;DHT22;49949;43.060;25.624;2023-08-24T03:26:22;22.20;99.90
63802;DHT22;49949;43.060;25.624;2023-08-24T03:28:51;22.10;99.90
63802;DHT22;49949;43.060;25.624;2023-08-24T03:31:17;22.10;99.90
63802;DHT22;49949;43.060;25.624;2023-08-24T03:33:43;22.10;99.90
63802;DHT22;49949;43.060;25.624;2023-08-24T03:36:08;22.10;99.90
63802;DHT22;49949;43.060;25.624;2023-08-24T03:38:34;22.10;99.90
63802;DHT22;49949;43.060;25.624;2023-08-24T03:41:03;22.20;99.90
63802;DHT22;49949;43.060;25.624;2023-08-24T03:43:33;22.10;99.90
63802;DHT22;49949;43.060;25.624;2023-08-24T03:46:00;22.10;99.90
63802;DHT22;49949;43.060;25.624;2023-08-24T03:48:26;22.20;99.90
63802;DHT22;49949;43.060;25.624;2023-08-24T03:50:55;22.20;99.90
63802;DHT22;49949;43.060;25.624;2023-08-24T03:53:22;22.20;99.90
63802;DHT22;49949;43.060;25.624;2023-08-24T03:55:48;22.20;99.90
63802;DHT22;49949;43.060;25.624;2023-08-24T03:58:15;22.20;99.90
63802;DHT22;49949;43.060;25.624;2023-08-24T04:00:41;22.20;99.90
63802;DHT22;49949;43.060;25.624;2023-08-24T04:03:07;22.30;99.90
63802;DHT22;49949;43.060;25.624;2023-08-24T04:05:33;22.40;99.90
63802;DHT22;49949;43.060;25.624;2023-08-24T04:07:59;22.30;99.90
63802;DHT22;49949;43.060;25.624;2023-08-24T04:10:26;22.40;99.90
63802;DHT22;49949;43.060;25.624;2023-08-24T04:12:52;22.40;99.90
63802;DHT22;49949;43.060;25.624;2023-08-24T04:15:18;22.40;99.90
63802;DHT22;49949;43.060;25.624;2023-08-24T04:17:44;22.40;99.90
63802;DHT22;49949;43.060;25.624;2023-08-24T04:20:10;22.40;99.90
63802;DHT22;49949;43.060;25.624;2023-08-24T04:22:36;22.40;99.90
63802;DHT22;49949;43.060;25.624;2023-08-24T04:25:02;22.40;99.90
63802;DHT22;49949;43.060;25.624;2023-08-24T04:27:28;22.60;99.90
63802;DHT22;49949;43.060;25.624;2023-08-24T04:29:54;22.90;99.90
63802;DHT22;49949;43.060;25.624;2023-08-24T04:32:21;23.10;99.90
63802;DHT22;49949;43.060;25.624;2023-08-24T04:34:47;23.20;99.90
63802;DHT22;49949;43.060;25.624;2023-08-24T04:37:13;23.30;99.90
63802;DHT22;49949;43.060;25.624;2023-08-24T04:39:38;23.30;99.90
63802;DHT22;49949;43.060;25.624;2023-08-24T04:42:04;23.20;99.90
63802;DHT22;49949;43.060;25.624;2023-08-24T04:44:31;23.20;99.90
63802;DHT22;49949;43.060;25.624;2023-08-24T04:46:57;23.20;99.90
63802;DHT22;49949;43.060;25.624;2023-08-24T04:49:23;23.30;99.90
63802;DHT22;49949;43.060;25.624;2023-08-24T04:51:49;23.40;99.90
63802;DHT22;49949;43.060;25.624;2023-08-24T04:54:15;23.40;99.90
63802;DHT22;49949;43.060;25.624;2023-08-24T04:56:41;23.30;99.90
63802;DHT22;49949;43.060;25.624;2023-08-24T04:59:06;23.30;99.90
63802;DHT22;49949;43.060;25.624;2023-08-24T05:01:34;23.30;99.90
63802;DHT22;49949;43.060;25.624;2023-08-24T05:03:59;23.40;99.90
63802;DHT22;49949;43.060;25.624;2023-08-24T05:06:25;23.50;99.90
63802;DHT22;49949;43.060;25.624;2023-08-24T05:08:51;23.60;99.90
63802;DHT22;49949;43.060;25.624;2023-08-24T05:11:18;23.70;99.90
63802;DHT22;49949;43.060;25.624;2023-08-24T05:13:45;23.80;99.90
63802;DHT22;49949;43.060;25.624;2023-08-24T05:16:12;23.90;99.90
63802;DHT22;49949;43.060;25.624;2023-08-24T05:18:38;24.10;99.90
63802;DHT22;49949;43.060;25.624;2023-08-24T05:21:04;24.40;99.90
63802;DHT22;49949;43.060;25.624;2023-08-24T05:23:33;24.80;99.90
63802;DHT22;49949;43.060;25.624;2023-08-24T05:26:00;25.40;99.90
63802;DHT22;49949;43.060;25.624;2023-08-24T05:28:27;25.90;99.90
63802;DHT22;49949;43.060;25.624;2023-08-24T05:30:53;26.20;99.90
63802;DHT22;49949;43.060;25.624;2023-08-24T05:33:20;26.30;99.90
63802;DHT22;49949;43.060;25.624;2023-08-24T05:35:47;26.60;99.90
63802;DHT22;49949;43.060;25.624;2023-08-24T05:38:14;27.00;99.90
63802;DHT22;49949;43.060;25.624;2023-08-24T05:40:40;27.40;99.90
63802;DHT22;49949;43.060;25.624;2023-08-24T05:43:08;27.80;99.90
63802;DHT22;49949;43.060;25.624;2023-08-24T05:45:34;28.10;98.60
63802;DHT22;49949;43.060;25.624;2023-08-24T05:47:59;28.30;95.10
63802;DHT22;49949;43.060;25.624;2023-08-24T05:50:25;28.60;93.80
63802;DHT22;49949;43.060;25.624;2023-08-24T05:52:51;28.80;91.50
63802;DHT22;49949;43.060;25.624;2023-08-24T05:55:17;28.70;92.70
63802;DHT22;49949;43.060;25.624;2023-08-24T05:57:43;28.90;89.50
63802;DHT22;49949;43.060;25.624;2023-08-24T06:00:09;28.90;90.30
63802;DHT22;49949;43.060;25.624;2023-08-24T06:02:39;28.80;89.00
63802;DHT22;49949;43.060;25.624;2023-08-24T06:05:05;29.20;88.60
63802;DHT22;49949;43.060;25.624;2023-08-24T06:07:32;29.50;88.00
63802;DHT22;49949;43.060;25.624;2023-08-24T06:09:57;29.60;85.40
63802;DHT22;49949;43.060;25.624;2023-08-24T06:12:23;29.90;86.10
63802;DHT22;49949;43.060;25.624;2023-08-24T06:14:49;29.50;86.20
63802;DHT22;49949;43.060;25.624;2023-08-24T06:17:15;29.10;86.20
63802;DHT22;49949;43.060;25.624;2023-08-24T06:19:41;29.20;87.60
63802;DHT22;49949;43.060;25.624;2023-08-24T06:22:07;29.40;87.90
63802;DHT22;49949;43.060;25.624;2023-08-24T06:24:33;29.60;84.70
63802;DHT22;49949;43.060;25.624;2023-08-24T06:26:58;29.90;85.40
63802;DHT22;49949;43.060;25.624;2023-08-24T06:29:24;30.10;85.20
63802;DHT22;49949;43.060;25.624;2023-08-24T06:31:50;30.30;85.00
63802;DHT22;49949;43.060;25.624;2023-08-24T06:34:15;30.40;86.00
63802;DHT22;49949;43.060;25.624;2023-08-24T06:36:41;30.60;86.20
63802;DHT22;49949;43.060;25.624;2023-08-24T06:39:07;30.80;85.30
63802;DHT22;49949;43.060;25.624;2023-08-24T06:41:34;31.00;84.30
63802;DHT22;49949;43.060;25.624;2023-08-24T06:44:00;31.10;82.30
63802;DHT22;49949;43.060;25.624;2023-08-24T06:46:26;31.30;82.60
63802;DHT22;49949;43.060;25.624;2023-08-24T06:48:52;31.40;81.30
63802;DHT22;49949;43.060;25.624;2023-08-24T06:51:18;31.20;82.70
63802;DHT22;49949;43.060;25.624;2023-08-24T06:53:44;31.00;84.60
63802;DHT22;49949;43.060;25.624;2023-08-24T06:56:12;30.90;83.80
63802;DHT22;49949;43.060;25.624;2023-08-24T06:58:39;30.90;83.20
63802;DHT22;49949;43.060;25.624;2023-08-24T07:01:05;31.00;82.40
63802;DHT22;49949;43.060;25.624;2023-08-24T07:03:31;31.00;82.30
63802;DHT22;49949;43.060;25.624;2023-08-24T07:05:58;31.10;81.40
63802;DHT22;49949;43.060;25.624;2023-08-24T07:08:24;31.00;81.60
63802;DHT22;49949;43.060;25.624;2023-08-24T07:10:50;31.10;81.80
63802;DHT22;49949;43.060;25.624;2023-08-24T07:13:16;31.30;79.70
63802;DHT22;49949;43.060;25.624;2023-08-24T07:15:42;31.50;79.70
63802;DHT22;49949;43.060;25.624;2023-08-24T07:18:08;31.70;79.00
63802;DHT22;49949;43.060;25.624;2023-08-24T07:20:34;31.90;77.80
63802;DHT22;49949;43.060;25.624;2023-08-24T07:23:00;32.00;78.10
63802;DHT22;49949;43.060;25.624;2023-08-24T07:25:29;32.10;77.20
63802;DHT22;49949;43.060;25.624;2023-08-24T07:27:55;32.30;76.90
63802;DHT22;49949;43.060;25.624;2023-08-24T07:30:28;32.60;75.70
63802;DHT22;49949;43.060;25.624;2023-08-24T07:32:54;33.00;74.70
63802;DHT22;49949;43.060;25.624;2023-08-24T07:35:20;33.20;73.00
63802;DHT22;49949;43.060;25.624;2023-08-24T07:37:49;33.30;72.80
63802;DHT22;49949;43.060;25.624;2023-08-24T07:40:15;33.20;72.00
63802;DHT22;49949;43.060;25.624;2023-08-24T07:42:51;33.10;72.90
63802;DHT22;49949;43.060;25.624;2023-08-24T07:45:18;33.30;72.40
63802;DHT22;49949;43.060;25.624;2023-08-24T07:47:44;33.40;71.30
63802;DHT22;49949;43.060;25.624;2023-08-24T07:50:10;33.50;70.40
63802;DHT22;49949;43.060;25.624;2023-08-24T07:52:40;33.40;70.20
63802;DHT22;49949;43.060;25.624;2023-08-24T07:55:07;33.50;70.10
63802;DHT22;49949;43.060;25.624;2023-08-24T07:57:37;33.30;70.20
63802;DHT22;49949;43.060;25.624;2023-08-24T08:00:04;33.30;69.70
63802;DHT22;49949;43.060;25.624;2023-08-24T08:02:30;33.30;70.70
63802;DHT22;49949;43.060;25.624;2023-08-24T08:05:01;33.50;70.20
63802;DHT22;49949;43.060;25.624;2023-08-24T08:07:27;33.70;68.80
63802;DHT22;49949;43.060;25.624;2023-08-24T08:09:53;33.80;68.50
63802;DHT22;49949;43.060;25.624;2023-08-24T08:12:18;33.60;68.60
63802;DHT22;49949;43.060;25.624;2023-08-24T08:14:44;34.00;67.00
63802;DHT22;49949;43.060;25.624;2023-08-24T08:17:09;34.40;65.50
63802;DHT22;49949;43.060;25.624;2023-08-24T08:19:35;34.80;64.60
63802;DHT22;49949;43.060;25.624;2023-08-24T08:22:03;35.00;63.30
63802;DHT22;49949;43.060;25.624;2023-08-24T08:24:29;35.20;62.40
63802;DHT22;49949;43.060;25.624;2023-08-24T08:26:55;35.30;63.20
63802;DHT22;49949;43.060;25.624;2023-08-24T08:29:21;35.40;62.90
63802;DHT22;49949;43.060;25.624;2023-08-24T08:31:46;35.60;62.10
63802;DHT22;49949;43.060;25.624;2023-08-24T08:34:12;35.70;61.20
63802;DHT22;49949;43.060;25.624;2023-08-24T08:36:38;35.80;61.50
63802;DHT22;49949;43.060;25.624;2023-08-24T08:39:03;36.00;61.10
63802;DHT22;49949;43.060;25.624;2023-08-24T08:41:33;36.10;60.40
63802;DHT22;49949;43.060;25.624;2023-08-24T08:44:05;36.40;59.90
63802;DHT22;49949;43.060;25.624;2023-08-24T08:46:32;36.50;58.60
63802;DHT22;49949;43.060;25.624;2023-08-24T08:49:00;36.60;59.10
63802;DHT22;49949;43.060;25.624;2023-08-24T08:51:26;36.90;58.30
63802;DHT22;49949;43.060;25.624;2023-08-24T08:53:52;37.00;58.60
63802;DHT22;49949;43.060;25.624;2023-08-24T08:56:19;37.20;58.30
63802;DHT22;49949;43.060;25.624;2023-08-24T08:58:46;37.60;57.60
63802;DHT22;49949;43.060;25.624;2023-08-24T09:01:12;37.70;58.60
63802;DHT22;49949;43.060;25.624;2023-08-24T09:03:39;37.70;55.40
63802;DHT22;49949;43.060;25.624;2023-08-24T09:06:05;37.50;55.10
63802;DHT22;49949;43.060;25.624;2023-08-24T09:08:31;37.40;55.00
63802;DHT22;49949;43.060;25.624;2023-08-24T09:10:59;37.10;56.80
63802;DHT22;49949;43.060;25.624;2023-08-24T09:13:25;36.90;56.50
63802;DHT22;49949;43.060;25.624;2023-08-24T09:15:54;36.90;57.50
63802;DHT22;49949;43.060;25.624;2023-08-24T09:18:37;37.10;56.60
63802;DHT22;49949;43.060;25.624;2023-08-24T09:21:14;37.20;57.00
63802;DHT22;49949;43.060;25.624;2023-08-24T09:23:44;37.50;55.70
63802;DHT22;49949;43.060;25.624;2023-08-24T09:26:11;37.70;54.80
63802;DHT22;49949;43.060;25.624;2023-08-24T09:28:37;37.70;53.90
63802;DHT22;49949;43.060;25.624;2023-08-24T09:31:05;37.70;53.90
63802;DHT22;49949;43.060;25.624;2023-08-24T09:33:30;37.90;54.00
63802;DHT22;49949;43.060;25.624;2023-08-24T09:35:56;38.00;54.00
63802;DHT22;49949;43.060;25.624;2023-08-24T09:38:27;38.10;53.90
63802;DHT22;49949;43.060;25.624;2023-08-24T09:40:55;38.20;53.50
63802;DHT22;49949;43.060;25.624;2023-08-24T09:43:22;38.30;52.40
63802;DHT22;49949;43.060;25.624;2023-08-24T09:45:55;38.20;52.30
63802;DHT22;49949;43.060;25.624;2023-08-24T09:48:22;38.30;54.30
63802;DHT22;49949;43.060;25.624;2023-08-24T09:50:49;38.40;54.20
63802;DHT22;49949;43.060;25.624;2023-08-24T09:53:18;38.60;53.70
63802;DHT22;49949;43.060;25.624;2023-08-24T09:55:53;38.80;50.60
63802;DHT22;49949;43.060;25.624;2023-08-24T09:58:19;38.70;49.70
63802;DHT22;49949;43.060;25.624;2023-08-24T10:00:46;38.70;48.80
63802;DHT22;49949;43.060;25.624;2023-08-24T10:03:16;38.80;49.70
63802;DHT22;49949;43.060;25.624;2023-08-24T10:05:55;38.90;50.50
63802;DHT22;49949;43.060;25.624;2023-08-24T10:08:27;38.70;49.80
63802;DHT22;49949;43.060;25.624;2023-08-24T10:10:56;38.40;50.20
63802;DHT22;49949;43.060;25.624;2023-08-24T10:13:50;37.10;53.70
63802;DHT22;49949;43.060;25.624;2023-08-24T10:16:17;36.50;55.10
63802;DHT22;49949;43.060;25.624;2023-08-24T10:18:44;36.50;55.10
63802;DHT22;49949;43.060;25.624;2023-08-24T10:21:11;37.00;54.90
63802;DHT22;49949;43.060;25.624;2023-08-24T10:23:37;37.50;53.50
63802;DHT22;49949;43.060;25.624;2023-08-24T10:26:06;37.50;52.50
63802;DHT22;49949;43.060;25.624;2023-08-24T10:28:32;37.50;52.80
63802;DHT22;49949;43.060;25.624;2023-08-24T10:30:59;37.80;52.50
63802;DHT22;49949;43.060;25.624;2023-08-24T10:33:26;38.00;52.20
63802;DHT22;49949;43.060;25.624;2023-08-24T10:35:53;38.30;51.30
63802;DHT22;49949;43.060;25.624;2023-08-24T10:38:29;38.50;51.20
63802;DHT22;49949;43.060;25.624;2023-08-24T10:41:04;38.60;51.20
63802;DHT22;49949;43.060;25.624;2023-08-24T10:43:37;38.40;51.20
63802;DHT22;49949;43.060;25.624;2023-08-24T10:46:03;38.00;52.10
63802;DHT22;49949;43.060;25.624;2023-08-24T10:53:56;37.20;52.50
63802;DHT22;49949;43.060;25.624;2023-08-24T11:01:54;36.80;53.20
63802;DHT22;49949;43.060;25.624;2023-08-24T11:04:21;36.80;53.10
63802;DHT22;49949;43.060;25.624;2023-08-24T11:07:00;37.00;52.00
63802;DHT22;49949;43.060;25.624;2023-08-24T11:09:45;37.20;51.80
63802;DHT22;49949;43.060;25.624;2023-08-24T11:12:12;37.40;50.90
63802;DHT22;49949;43.060;25.624;2023-08-24T11:14:49;37.50;50.70
63802;DHT22;49949;43.060;25.624;2023-08-24T11:17:20;37.50;50.20
63802;DHT22;49949;43.060;25.624;2023-08-24T11:19:53;37.50;48.80
63802;DHT22;49949;43.060;25.624;2023-08-24T11:22:19;37.50;49.70
63802;DHT22;49949;43.060;25.624;2023-08-24T11:24:46;37.30;50.30
63802;DHT22;49949;43.060;25.624;2023-08-24T11:27:12;36.90;49.50
63802;DHT22;49949;43.060;25.624;2023-08-24T11:29:38;36.60;50.90
63802;DHT22;49949;43.060;25.624;2023-08-24T11:32:04;36.60;51.90
63802;DHT22;49949;43.060;25.624;2023-08-24T11:34:30;36.40;51.00
63802;DHT22;49949;43.060;25.624;2023-08-24T11:36:57;36.40;51.70
63802;DHT22;49949;43.060;25.624;2023-08-24T11:39:23;36.70;51.50
63802;DHT22;49949;43.060;25.624;2023-08-24T11:42:01;36.90;50.40
63802;DHT22;49949;43.060;25.624;2023-08-24T11:44:28;36.50;51.30
63802;DHT22;49949;43.060;25.624;2023-08-24T11:46:58;36.30;52.80
63802;DHT22;49949;43.060;25.624;2023-08-24T11:49:24;36.30;52.20
63802;DHT22;49949;43.060;25.624;2023-08-24T11:51:51;36.50;51.70
63802;DHT22;49949;43.060;25.624;2023-08-24T11:54:19;36.70;51.30
63802;DHT22;49949;43.060;25.624;2023-08-24T11:56:46;37.00;51.00
63802;DHT22;49949;43.060;25.624;2023-08-24T11:59:16;37.20;50.50
63802;DHT22;49949;43.060;25.624;2023-08-24T12:01:43;37.20;49.80
63802;DHT22;49949;43.060;25.624;2023-08-24T12:04:09;37.00;50.50
63802;DHT22;49949;43.060;25.624;2023-08-24T12:06:35;36.90;49.90
63802;DHT22;49949;43.060;25.624;2023-08-24T12:09:01;37.00;50.80
63802;DHT22;49949;43.060;25.624;2023-08-24T12:11:35;37.00;51.30
63802;DHT22;49949;43.060;25.624;2023-08-24T12:14:01;37.00;53.30
63802;DHT22;49949;43.060;25.624;2023-08-24T12:16:26;36.60;53.00
63802;DHT22;49949;43.060;25.624;2023-08-24T12:18:57;36.30;54.20
63802;DHT22;49949;43.060;25.624;2023-08-24T12:21:25;36.10;55.00
63802;DHT22;49949;43.060;25.624;2023-08-24T12:24:02;36.00;55.50
63802;DHT22;49949;43.060;25.624;2023-08-24T12:26:32;35.80;54.80
63802;DHT22;49949;43.060;25.624;2023-08-24T12:29:08;35.60;55.80
63802;DHT22;49949;43.060;25.624;2023-08-24T12:31:35;35.30;55.90
63802;DHT22;49949;43.060;25.624;2023-08-24T12:34:05;35.00;56.30
63802;DHT22;49949;43.060;25.624;2023-08-24T12:36:32;34.90;56.30
63802;DHT22;49949;43.060;25.624;2023-08-24T12:38:58;34.70;56.20
63802;DHT22;49949;43.060;25.624;2023-08-24T12:41:24;34.80;56.60
63802;DHT22;49949;43.060;25.624;2023-08-24T12:43:51;35.00;56.60
63802;DHT22;49949;43.060;25.624;2023-08-24T12:46:17;35.20;55.70
63802;DHT22;49949;43.060;25.624;2023-08-24T12:48:43;35.60;54.80
63802;DHT22;49949;43.060;25.624;2023-08-24T12:51:09;35.70;54.30
63802;DHT22;49949;43.060;25.624;2023-08-24T12:53:34;35.70;54.00
63802;DHT22;49949;43.060;25.624;2023-08-24T12:56:00;35.80;53.80
63802;DHT22;49949;43.060;25.624;2023-08-24T12:58:26;35.80;54.00
63802;DHT22;49949;43.060;25.624;2023-08-24T13:00:51;35.90;53.80
63802;DHT22;49949;43.060;25.624;2023-08-24T13:03:17;36.10;53.80
63802;DHT22;49949;43.060;25.624;2023-08-24T13:05:43;36.20;52.90
63802;DHT22;49949;43.060;25.624;2023-08-24T13:08:08;36.20;52.60
63802;DHT22;49949;43.060;25.624;2023-08-24T13:10:34;36.40;52.70
63802;DHT22;49949;43.060;25.624;2023-08-24T13:13:02;36.40;52.20
63802;DHT22;49949;43.060;25.624;2023-08-24T13:15:28;36.60;52.10
63802;DHT22;49949;43.060;25.624;2023-08-24T13:17:54;36.70;52.20
63802;DHT22;49949;43.060;25.624;2023-08-24T13:20:20;36.90;50.80
63802;DHT22;49949;43.060;25.624;2023-08-24T13:22:46;36.90;51.30
63802;DHT22;49949;43.060;25.624;2023-08-24T13:25:11;36.80;51.20
63802;DHT22;49949;43.060;25.624;2023-08-24T13:27:37;36.60;51.20
63802;DHT22;49949;43.060;25.624;2023-08-24T13:30:03;36.50;51.80
63802;DHT22;49949;43.060;25.624;2023-08-24T13:32:29;36.30;52.00
63802;DHT22;49949;43.060;25.624;2023-08-24T13:34:55;36.30;52.70
63802;DHT22;49949;43.060;25.624;2023-08-24T13:37:21;36.10;53.20
63802;DHT22;49949;43.060;25.624;2023-08-24T13:39:48;35.90;52.40
63802;DHT22;49949;43.060;25.624;2023-08-24T13:42:13;35.80;53.00
63802;DHT22;49949;43.060;25.624;2023-08-24T13:44:39;35.80;53.30
63802;DHT22;49949;43.060;25.624;2023-08-24T13:47:05;35.90;52.60
63802;DHT22;49949;43.060;25.624;2023-08-24T13:49:31;36.10;53.00
63802;DHT22;49949;43.060;25.624;2023-08-24T13:51:57;35.90;52.20
63802;DHT22;49949;43.060;25.624;2023-08-24T13:54:23;35.90;52.90
63802;DHT22;49949;43.060;25.624;2023-08-24T13:56:48;36.00;54.10
63802;DHT22;49949;43.060;25.624;2023-08-24T13:59:15;35.80;54.30
63802;DHT22;49949;43.060;25.624;2023-08-24T14:01:41;35.90;55.00
63802;DHT22;49949;43.060;25.624;2023-08-24T14:04:07;36.00;55.20
63802;DHT22;49949;43.060;25.624;2023-08-24T14:06:34;36.00;54.90
63802;DHT22;49949;43.060;25.624;2023-08-24T14:09:02;36.00;55.30
63802;DHT22;49949;43.060;25.624;2023-08-24T14:11:28;36.00;55.20
63802;DHT22;49949;43.060;25.624;2023-08-24T14:13:54;36.10;55.00
63802;DHT22;49949;43.060;25.624;2023-08-24T14:16:20;36.20;53.80
63802;DHT22;49949;43.060;25.624;2023-08-24T14:18:46;35.90;54.30
63802;DHT22;49949;43.060;25.624;2023-08-24T14:21:12;35.80;54.80
63802;DHT22;49949;43.060;25.624;2023-08-24T14:23:39;35.80;54.40
63802;DHT22;49949;43.060;25.624;2023-08-24T14:26:05;35.70;54.80
63802;DHT22;49949;43.060;25.624;2023-08-24T14:29:07;35.50;55.10
63802;DHT22;49949;43.060;25.624;2023-08-24T14:31:34;35.20;56.50
63802;DHT22;49949;43.060;25.624;2023-08-24T14:33:59;35.00;57.10
63802;DHT22;49949;43.060;25.624;2023-08-24T14:36:25;34.90;56.80
63802;DHT22;49949;43.060;25.624;2023-08-24T14:38:51;34.60;59.40
63802;DHT22;49949;43.060;25.624;2023-08-24T14:41:19;33.50;69.20
63802;DHT22;49949;43.060;25.624;2023-08-24T14:43:46;31.90;81.60
63802;DHT22;49949;43.060;25.624;2023-08-24T14:46:12;29.90;92.20
63802;DHT22;49949;43.060;25.624;2023-08-24T14:48:37;27.80;99.90
63802;DHT22;49949;43.060;25.624;2023-08-24T14:51:04;26.10;99.90
63802;DHT22;49949;43.060;25.624;2023-08-24T14:53:30;24.50;99.90
63802;DHT22;49949;43.060;25.624;2023-08-24T14:55:56;23.60;99.90
63802;DHT22;49949;43.060;25.624;2023-08-24T14:58:23;23.20;99.90
63802;DHT22;49949;43.060;25.624;2023-08-24T15:00:50;22.90;99.90
63802;DHT22;49949;43.060;25.624;2023-08-24T15:03:17;22.60;99.90
63802;DHT22;49949;43.060;25.624;2023-08-24T15:05:59;22.40;99.90
63802;DHT22;49949;43.060;25.624;2023-08-24T15:08:25;22.20;99.90
63802;DHT22;49949;43.060;25.624;2023-08-24T15:10:51;21.90;99.90
63802;DHT22;49949;43.060;25.624;2023-08-24T15:13:16;21.80;99.90
63802;DHT22;49949;43.060;25.624;2023-08-24T15:15:42;21.70;99.90
63802;DHT22;49949;43.060;25.624;2023-08-24T15:18:10;21.50;99.90
63802;DHT22;49949;43.060;25.624;2023-08-24T15:20:36;21.40;99.90
63802;DHT22;49949;43.060;25.624;2023-08-24T15:23:02;21.20;99.90
63802;DHT22;49949;43.060;25.624;2023-08-24T15:25:27;21.10;99.90
63802;DHT22;49949;43.060;25.624;2023-08-24T15:27:53;21.10;99.90
63802;DHT22;49949;43.060;25.624;2023-08-24T15:30:19;21.10;99.90